Time;durP1;ratioP1;P1;durP2;ratioP2;P2;SDS_P1;SDS_P2;PMS_P1;PMS_P2;Temp;Humidity;BMP_temperature;BMP_pressure;BME280_temperature;BME280_humidity;BME280_pressure;Samples;Min_cycle;Max_cycle;Signal;HPM_P1;HPM_P2
2022/11/03 00:00:35;;;;;;;8.67;4.10;;;10.30;99.90;;;;;;5091677;28;20647;-71
2022/11/03 00:03:01;;;;;;;12.50;5.17;;;10.20;99.90;;;;;;5092006;28;20216;-70
2022/11/03 00:08:14;;;;;;;7.17;4.40;;;10.20;99.90;;;;;;5088453;28;20243;-71
2022/11/03 00:10:41;;;;;;;13.53;4.77;;;10.20;99.90;;;;;;5092315;28;20201;-71
2022/11/03 00:13:07;;;;;;;10.53;3.97;;;10.10;99.90;;;;;;5093603;28;20208;-71
2022/11/03 00:15:34;;;;;;;8.60;4.87;;;10.10;99.90;;;;;;5092165;28;20204;-71
2022/11/03 00:18:01;;;;;;;6.97;3.93;;;10.00;99.90;;;;;;5088117;28;20208;-71
2022/11/03 00:20:28;;;;;;;39.23;4.90;;;10.00;99.90;;;;;;5091609;28;20230;-71
2022/11/03 00:22:55;;;;;;;11.03;4.13;;;10.00;99.90;;;;;;5093184;28;20231;-71
2022/11/03 00:25:23;;;;;;;7.93;4.20;;;9.90;99.90;;;;;;5079923;28;20585;-70
2022/11/03 00:27:55;;;;;;;8.57;4.03;;;9.90;99.90;;;;;;5089336;28;20228;-71
2022/11/03 00:30:22;;;;;;;8.93;4.30;;;9.90;99.90;;;;;;5084504;28;20231;-71
2022/11/03 00:32:49;;;;;;;9.47;5.67;;;9.90;99.90;;;;;;5090872;28;20599;-71
2022/11/03 00:35:16;;;;;;;8.07;4.63;;;9.80;99.90;;;;;;5092597;28;20587;-71
2022/11/03 00:37:42;;;;;;;10.77;4.10;;;9.80;99.90;;;;;;5090353;28;20568;-71
2022/11/03 00:40:11;;;;;;;9.27;3.90;;;9.80;99.90;;;;;;5091624;28;20204;-71
2022/11/03 00:42:39;;;;;;;8.70;3.30;;;9.80;99.90;;;;;;5087670;28;20574;-71
2022/11/03 00:45:06;;;;;;;6.60;3.73;;;9.80;99.90;;;;;;5092540;28;20205;-70
2022/11/03 00:47:33;;;;;;;6.80;3.73;;;9.70;99.90;;;;;;5090898;28;20220;-71
2022/11/03 00:50:00;;;;;;;9.70;4.23;;;9.70;99.90;;;;;;5092251;28;20197;-71
2022/11/03 00:52:27;;;;;;;7.73;4.00;;;9.60;99.90;;;;;;5092302;28;20216;-71
2022/11/03 00:54:53;;;;;;;7.80;3.93;;;9.60;99.90;;;;;;5090595;28;20434;-71
2022/11/03 00:57:20;;;;;;;7.30;3.83;;;9.60;99.90;;;;;;5089488;28;20527;-71
2022/11/03 00:59:48;;;;;;;10.07;4.00;;;9.60;99.90;;;;;;5093071;28;20214;-71
2022/11/03 01:02:15;;;;;;;7.53;3.87;;;9.50;99.90;;;;;;5093195;28;20205;-70
2022/11/03 01:07:26;;;;;;;7.90;3.60;;;9.50;99.90;;;;;;5091676;28;20239;-73
2022/11/03 01:09:53;;;;;;;9.97;3.70;;;9.40;99.90;;;;;;5089650;28;20733;-70
2022/11/03 01:12:20;;;;;;;6.33;3.60;;;9.50;99.90;;;;;;5088851;28;20228;-71
2022/11/03 01:14:50;;;;;;;9.07;3.67;;;9.40;99.90;;;;;;5091073;28;20464;-72
2022/11/03 01:17:18;;;;;;;7.03;3.27;;;9.40;99.90;;;;;;5089892;28;20574;-71
2022/11/03 01:19:46;;;;;;;7.23;3.13;;;9.40;99.90;;;;;;5090149;28;20660;-70
2022/11/03 01:22:13;;;;;;;7.70;3.60;;;9.40;99.90;;;;;;5091917;28;20228;-70
2022/11/03 01:24:41;;;;;;;9.17;3.60;;;9.30;99.90;;;;;;5092084;28;20215;-72
2022/11/03 01:27:09;;;;;;;8.27;3.53;;;9.30;99.90;;;;;;5086480;28;20210;-71
2022/11/03 01:29:35;;;;;;;9.83;3.80;;;9.30;99.90;;;;;;5090352;28;20667;-71
2022/11/03 01:32:04;;;;;;;5.00;3.17;;;9.30;99.90;;;;;;5091300;28;20239;-71
2022/11/03 01:34:31;;;;;;;6.60;3.00;;;9.20;99.90;;;;;;5089458;28;20664;-71
2022/11/03 01:36:57;;;;;;;9.23;3.30;;;9.20;99.90;;;;;;5087649;28;20204;-71
2022/11/03 01:39:24;;;;;;;7.40;3.10;;;9.20;99.90;;;;;;5090741;28;20214;-71
2022/11/03 01:41:53;;;;;;;7.80;3.53;;;9.10;99.90;;;;;;5090626;28;20738;-71
2022/11/03 01:44:35;;;;;;;4.90;3.03;;;9.10;99.90;;;;;;5091556;28;20571;-71
2022/11/03 01:47:21;;;;;;;9.57;3.40;;;9.10;99.90;;;;;;5085185;28;20203;-70
2022/11/03 01:49:52;;;;;;;5.67;3.10;;;9.00;99.90;;;;;;5090822;28;20201;-70
2022/11/03 01:52:25;;;;;;;7.03;3.03;;;9.00;99.90;;;;;;5090507;28;20229;-70
2022/11/03 01:54:57;;;;;;;7.53;2.87;;;9.00;99.90;;;;;;5092513;28;20200;-69
2022/11/03 01:57:26;;;;;;;9.57;3.10;;;9.00;99.90;;;;;;5090534;28;20196;-70
2022/11/03 01:59:56;;;;;;;5.80;2.97;;;9.00;99.90;;;;;;5090880;28;20837;-70
2022/11/03 02:02:25;;;;;;;7.37;3.30;;;9.00;99.90;;;;;;5092934;28;20193;-70
2022/11/03 02:04:52;;;;;;;8.23;3.30;;;8.90;99.90;;;;;;5093629;28;20208;-69
2022/11/03 02:07:25;;;;;;;7.33;3.03;;;8.90;99.90;;;;;;5090969;28;20236;-70
2022/11/03 02:09:51;;;;;;;6.73;3.33;;;8.90;99.90;;;;;;5092503;28;20204;-71
2022/11/03 02:12:21;;;;;;;8.27;3.77;;;8.90;99.90;;;;;;5091119;28;20307;-70
2022/11/03 02:14:54;;;;;;;7.57;3.03;;;8.90;99.90;;;;;;5091415;28;20234;-70
2022/11/03 02:17:23;;;;;;;7.80;3.47;;;8.90;99.90;;;;;;5089077;28;20207;-71
2022/11/03 02:19:56;;;;;;;7.60;3.77;;;8.90;99.90;;;;;;5087843;28;20209;-70
2022/11/03 02:22:54;;;;;;;8.63;3.40;;;8.80;99.90;;;;;;5091015;28;20232;-70
2022/11/03 02:25:35;;;;;;;6.33;3.07;;;8.80;99.90;;;;;;5091694;28;20306;-70
2022/11/03 02:28:03;;;;;;;6.97;3.60;;;8.80;99.90;;;;;;5089722;28;20205;-70
2022/11/03 02:30:38;;;;;;;5.60;3.47;;;8.80;99.90;;;;;;5092393;28;20204;-69
2022/11/03 02:33:15;;;;;;;9.43;4.33;;;8.80;99.90;;;;;;5091691;28;20220;-70
2022/11/03 02:35:48;;;;;;;9.07;4.70;;;8.80;99.90;;;;;;5092050;28;20567;-70
2022/11/03 02:38:19;;;;;;;12.17;5.47;;;8.70;99.90;;;;;;5092546;28;20264;-70
2022/11/03 02:40:50;;;;;;;8.43;4.33;;;8.70;99.90;;;;;;5093409;28;20220;-70
2022/11/03 02:43:18;;;;;;;10.50;4.70;;;8.70;99.90;;;;;;5094838;28;20188;-70
2022/11/03 02:45:47;;;;;;;9.90;4.50;;;8.70;99.90;;;;;;5093844;28;20650;-70
2022/11/03 02:48:15;;;;;;;6.93;4.70;;;8.60;99.90;;;;;;5095701;28;20295;-70
2022/11/03 02:50:42;;;;;;;8.93;4.63;;;8.70;99.90;;;;;;5095602;28;20221;-70
2022/11/03 02:53:12;;;;;;;11.27;5.17;;;8.60;99.90;;;;;;5096009;28;20232;-71
2022/11/03 02:55:41;;;;;;;12.90;5.57;;;8.60;99.90;;;;;;5094921;28;20638;-70
2022/11/03 02:58:14;;;;;;;10.77;5.17;;;8.60;99.90;;;;;;5092151;28;20201;-71
2022/11/03 03:00:46;;;;;;;11.53;5.57;;;8.50;99.90;;;;;;5097181;28;20588;-70
2022/11/03 03:03:17;;;;;;;9.40;5.43;;;8.60;99.90;;;;;;5096245;28;20197;-69
2022/11/03 03:05:47;;;;;;;10.77;4.90;;;8.50;99.90;;;;;;5095156;28;20664;-70
2022/11/03 03:08:14;;;;;;;9.80;6.07;;;8.50;99.90;;;;;;5094342;28;20244;-71
2022/11/03 03:10:44;;;;;;;10.40;5.80;;;8.50;99.90;;;;;;5096640;28;20257;-70
2022/11/03 03:13:15;;;;;;;13.70;7.07;;;8.50;99.90;;;;;;5094497;28;20222;-70
2022/11/03 03:15:46;;;;;;;7.70;5.53;;;8.50;99.90;;;;;;5095570;28;20231;-70
2022/11/03 03:18:21;;;;;;;12.93;6.23;;;8.50;99.90;;;;;;5094988;28;20200;-71
2022/11/03 03:20:56;;;;;;;10.37;6.03;;;8.50;99.90;;;;;;5093548;28;20196;-70
2022/11/03 03:23:25;;;;;;;9.83;5.70;;;8.50;99.90;;;;;;5094864;28;20232;-71
2022/11/03 03:25:58;;;;;;;11.70;5.73;;;8.50;99.90;;;;;;5094061;28;20227;-71
2022/11/03 03:28:31;;;;;;;12.07;5.53;;;8.50;99.90;;;;;;5093891;28;20200;-70
2022/11/03 03:31:01;;;;;;;11.37;6.20;;;8.50;99.90;;;;;;5096472;28;20207;-70
2022/11/03 03:33:29;;;;;;;10.40;5.87;;;8.40;99.90;;;;;;5095755;28;20900;-70
2022/11/03 03:35:59;;;;;;;9.23;5.67;;;8.40;99.90;;;;;;5096695;28;20204;-70
2022/11/03 03:38:30;;;;;;;10.03;6.20;;;8.40;99.90;;;;;;5094977;28;20205;-71
2022/11/03 03:41:00;;;;;;;10.30;5.97;;;8.40;99.90;;;;;;5095263;28;20235;-70
2022/11/03 03:43:29;;;;;;;8.83;6.30;;;8.40;99.90;;;;;;5095337;28;20571;-70
2022/11/03 03:46:00;;;;;;;13.00;6.57;;;8.40;99.90;;;;;;5095497;28;20196;-70
2022/11/03 03:48:27;;;;;;;10.30;6.20;;;8.30;99.90;;;;;;5090547;28;20201;-71
2022/11/03 03:50:54;;;;;;;8.63;5.70;;;8.30;99.90;;;;;;5096031;28;20216;-71
2022/11/03 03:53:21;;;;;;;10.47;5.63;;;8.40;99.90;;;;;;5093180;28;20712;-70
2022/11/03 03:55:51;;;;;;;15.60;6.70;;;8.20;99.90;;;;;;5094447;28;20589;-70
2022/11/03 03:58:18;;;;;;;12.37;6.67;;;8.20;99.90;;;;;;5092015;28;20204;-71
2022/11/03 04:00:46;;;;;;;11.77;5.73;;;8.30;99.90;;;;;;5095636;28;20223;-71
2022/11/03 04:03:16;;;;;;;12.00;6.13;;;8.20;99.90;;;;;;5089747;28;20205;-72
2022/11/03 04:05:43;;;;;;;12.50;6.53;;;8.20;99.90;;;;;;5094789;28;20212;-71
2022/11/03 04:08:11;;;;;;;11.10;5.93;;;8.20;99.90;;;;;;5093460;28;20236;-71
2022/11/03 04:10:37;;;;;;;11.30;6.80;;;8.20;99.90;;;;;;5092577;28;20212;-71
2022/11/03 04:24:04;;;;;;;9.00;5.80;;;8.10;99.90;;;;;;5090081;28;20220;-71
2022/11/03 04:26:30;;;;;;;9.77;6.00;;;8.10;99.90;;;;;;5091434;28;20220;-71
2022/11/03 04:28:58;;;;;;;12.30;6.10;;;8.10;99.90;;;;;;5094724;28;20205;-70
2022/11/03 04:31:28;;;;;;;11.07;6.27;;;8.10;99.90;;;;;;5093300;28;20235;-70
2022/11/03 04:33:56;;;;;;;9.73;5.67;;;8.00;99.90;;;;;;5086505;28;20221;-70
2022/11/03 04:36:25;;;;;;;10.80;6.57;;;8.00;99.90;;;;;;5094275;28;20193;-70
2022/11/03 04:38:52;;;;;;;11.77;6.50;;;8.00;99.90;;;;;;5094140;28;20212;-70
2022/11/03 04:41:22;;;;;;;12.20;6.57;;;8.00;99.90;;;;;;5091529;28;20537;-71
2022/11/03 04:43:51;;;;;;;10.60;6.50;;;8.00;99.90;;;;;;5088255;28;20300;-71
2022/11/03 04:46:24;;;;;;;11.67;6.70;;;8.00;99.90;;;;;;5093718;28;20215;-71
2022/11/03 04:48:53;;;;;;;17.70;6.90;;;8.00;99.90;;;;;;5093754;28;20640;-70
2022/11/03 04:51:29;;;;;;;10.83;6.30;;;8.00;99.90;;;;;;5094175;28;20605;-70
2022/11/03 04:54:01;;;;;;;10.37;6.23;;;8.00;99.90;;;;;;5094308;28;20673;-70
2022/11/03 04:56:29;;;;;;;11.70;6.20;;;7.90;99.90;;;;;;5092180;28;20765;-70
2022/11/03 04:58:57;;;;;;;11.67;5.90;;;8.00;99.90;;;;;;5089085;28;20232;-70
2022/11/03 05:01:25;;;;;;;10.37;6.57;;;7.90;99.90;;;;;;5092689;28;20666;-69
2022/11/03 05:03:54;;;;;;;12.00;6.60;;;7.90;99.90;;;;;;5093459;28;20207;-70
2022/11/03 05:06:22;;;;;;;8.40;6.27;;;7.90;99.90;;;;;;5092582;28;20212;-70
2022/11/03 05:08:53;;;;;;;10.43;6.83;;;7.90;99.90;;;;;;5094065;28;20285;-69
2022/11/03 05:11:22;;;;;;;12.57;7.00;;;7.90;99.90;;;;;;5091616;28;20192;-70
2022/11/03 05:13:50;;;;;;;9.90;6.80;;;7.80;99.90;;;;;;5093333;28;20228;-69
2022/11/03 05:16:17;;;;;;;10.27;6.03;;;7.80;99.90;;;;;;5092692;28;20740;-70
2022/11/03 05:18:46;;;;;;;11.90;6.20;;;7.80;99.90;;;;;;5088194;28;20286;-70
2022/11/03 05:21:17;;;;;;;14.03;7.23;;;7.90;99.90;;;;;;5093091;28;20208;-70
2022/11/03 05:23:46;;;;;;;11.80;7.10;;;7.80;99.90;;;;;;5094406;28;20233;-70
2022/11/03 05:26:18;;;;;;;9.27;6.50;;;7.80;99.90;;;;;;5093952;28;20219;-70
2022/11/03 05:28:48;;;;;;;13.43;6.73;;;7.80;99.90;;;;;;5094156;28;20329;-70
2022/11/03 05:31:24;;;;;;;12.13;7.03;;;7.80;99.90;;;;;;5093200;28;20208;-71
2022/11/03 05:33:52;;;;;;;12.17;6.20;;;7.70;99.90;;;;;;5091248;28;20212;-70
2022/11/03 05:36:22;;;;;;;10.47;7.10;;;7.70;99.90;;;;;;5093786;28;20247;-70
2022/11/03 05:38:50;;;;;;;11.13;6.30;;;7.70;99.90;;;;;;5094295;28;20709;-71
2022/11/03 05:41:23;;;;;;;10.80;6.63;;;7.70;99.90;;;;;;5090085;28;20291;-71
2022/11/03 05:43:56;;;;;;;11.27;6.27;;;7.70;99.90;;;;;;5092235;28;20193;-70
2022/11/03 05:46:23;;;;;;;9.33;6.63;;;7.70;99.90;;;;;;5091077;28;20206;-70
2022/11/03 05:48:51;;;;;;;7.97;5.53;;;7.70;99.90;;;;;;5090628;28;20546;-71
2022/11/03 05:51:24;;;;;;;10.60;6.93;;;7.80;99.90;;;;;;5091927;28;20677;-71
2022/11/03 05:53:53;;;;;;;11.00;6.13;;;7.70;99.90;;;;;;5081988;28;20265;-70
2022/11/03 05:56:23;;;;;;;12.10;6.07;;;7.80;99.90;;;;;;5092049;28;20621;-70
2022/11/03 05:58:53;;;;;;;15.37;6.33;;;7.80;99.90;;;;;;5091097;28;20197;-70
2022/11/03 06:01:25;;;;;;;9.63;6.70;;;7.80;99.90;;;;;;5090394;28;20205;-68
2022/11/03 06:03:52;;;;;;;11.33;5.73;;;7.80;99.90;;;;;;5082582;28;20198;-69
2022/11/03 06:06:25;;;;;;;11.30;6.40;;;7.80;99.90;;;;;;5073529;28;20280;-70
2022/11/03 06:08:52;;;;;;;9.97;6.37;;;7.80;99.90;;;;;;5077467;28;20233;-71
2022/11/03 06:11:27;;;;;;;14.73;7.00;;;7.80;99.90;;;;;;5082685;28;20701;-71
2022/11/03 06:13:56;;;;;;;13.27;6.27;;;7.80;99.90;;;;;;5084971;28;20250;-70
2022/11/03 06:16:42;;;;;;;11.30;6.77;;;7.90;99.90;;;;;;5085457;28;20220;-70
2022/11/03 06:19:21;;;;;;;9.73;6.40;;;7.90;99.90;;;;;;5099642;28;20667;-70
2022/11/03 06:21:51;;;;;;;9.70;5.50;;;8.00;99.90;;;;;;5092550;28;20203;-70
2022/11/03 06:24:21;;;;;;;12.50;6.27;;;8.00;99.90;;;;;;5092442;28;20200;-68
2022/11/03 06:26:49;;;;;;;11.77;6.17;;;8.10;99.90;;;;;;5092311;28;20216;-69
2022/11/03 06:29:18;;;;;;;9.93;6.10;;;8.10;99.90;;;;;;5091350;28;20208;-68
2022/11/03 06:31:48;;;;;;;9.33;5.80;;;8.20;99.90;;;;;;5093078;28;20580;-67
2022/11/03 06:34:27;;;;;;;12.40;6.27;;;8.30;99.90;;;;;;5088214;28;20307;-68
2022/11/03 06:36:57;;;;;;;12.80;6.00;;;8.30;99.90;;;;;;5091935;28;20207;-74
2022/11/03 06:39:24;;;;;;;11.30;6.23;;;8.50;99.90;;;;;;5092454;28;20208;-67
2022/11/03 06:41:51;;;;;;;11.30;7.20;;;8.80;99.90;;;;;;5093695;28;20214;-69
2022/11/03 06:44:23;;;;;;;9.33;6.27;;;9.20;99.90;;;;;;5089917;28;20215;-68
2022/11/03 06:46:51;;;;;;;9.63;6.40;;;9.40;99.90;;;;;;5089084;28;20200;-69
2022/11/03 06:49:30;;;;;;;12.07;6.43;;;9.50;99.90;;;;;;5090190;28;20208;-68
2022/11/03 06:52:02;;;;;;;10.57;5.83;;;9.50;99.90;;;;;;5092573;28;20193;-68
2022/11/03 06:54:29;;;;;;;10.33;5.47;;;9.60;99.90;;;;;;5092317;28;20436;-67
2022/11/03 06:56:55;;;;;;;11.60;6.37;;;9.60;99.90;;;;;;5088963;28;20208;-66
2022/11/03 06:59:22;;;;;;;10.00;5.60;;;9.60;99.90;;;;;;5089264;28;20205;-67
2022/11/03 07:01:55;;;;;;;8.97;6.20;;;9.70;99.90;;;;;;5092016;28;20657;-69
2022/11/03 07:04:27;;;;;;;9.30;5.63;;;9.70;99.90;;;;;;5093229;28;20200;-68
2022/11/03 07:06:57;;;;;;;11.57;5.97;;;9.80;99.90;;;;;;5091800;28;20254;-67
2022/11/03 07:09:26;;;;;;;10.73;5.33;;;10.00;99.90;;;;;;5071225;28;20212;-69
2022/11/03 07:11:55;;;;;;;11.80;5.93;;;10.10;99.90;;;;;;5073475;28;20205;-68
2022/11/03 07:14:24;;;;;;;14.17;8.63;;;10.20;99.90;;;;;;5074254;28;20256;-68
2022/11/03 07:16:54;;;;;;;16.47;8.07;;;10.40;99.90;;;;;;5068205;28;20616;-66
2022/11/03 07:19:23;;;;;;;14.33;6.07;;;10.50;99.90;;;;;;5067458;28;20206;-67
2022/11/03 07:21:51;;;;;;;9.07;5.83;;;10.60;99.90;;;;;;5060404;28;20222;-68
2022/11/03 07:24:21;;;;;;;10.07;6.50;;;10.70;99.90;;;;;;5066981;28;20207;-67
2022/11/03 07:26:56;;;;;;;13.50;6.23;;;10.80;99.90;;;;;;5071285;28;20670;-68
2022/11/03 07:29:26;;;;;;;10.97;5.80;;;10.90;99.90;;;;;;5072421;28;20295;-69
2022/11/03 07:31:54;;;;;;;10.60;6.00;;;11.10;99.90;;;;;;5072789;28;20216;-69
2022/11/03 07:34:24;;;;;;;10.30;5.40;;;11.20;99.90;;;;;;5071580;28;20225;-69
2022/11/03 07:36:52;;;;;;;10.03;5.23;;;11.40;99.90;;;;;;5071712;28;20216;-70
2022/11/03 07:39:21;;;;;;;10.77;5.77;;;11.60;99.90;;;;;;5073077;28;20213;-70
2022/11/03 07:41:48;;;;;;;12.07;6.23;;;11.70;99.90;;;;;;5074904;28;20209;-68
2022/11/03 07:44:20;;;;;;;13.33;5.60;;;12.00;99.90;;;;;;5073388;28;20202;-67
2022/11/03 07:46:48;;;;;;;11.83;5.60;;;12.20;99.90;;;;;;5071941;28;20209;-69
2022/11/03 07:49:25;;;;;;;9.97;6.00;;;12.40;99.90;;;;;;5075049;28;20221;-68
2022/11/03 07:51:53;;;;;;;11.33;5.20;;;12.40;99.90;;;;;;5074048;28;20223;-67
2022/11/03 07:54:22;;;;;;;9.13;5.93;;;12.50;99.90;;;;;;5069369;28;20225;-68
2022/11/03 07:56:52;;;;;;;12.83;5.63;;;12.50;99.90;;;;;;5072603;28;20294;-68
2022/11/03 07:59:22;;;;;;;9.80;5.23;;;12.60;99.90;;;;;;5062904;28;20209;-68
2022/11/03 08:01:51;;;;;;;8.07;5.60;;;12.70;99.90;;;;;;5064874;28;20666;-68
2022/11/03 08:04:21;;;;;;;10.43;5.27;;;12.70;99.90;;;;;;5061696;28;20288;-69
2022/11/03 08:06:48;;;;;;;9.23;5.40;;;12.70;99.90;;;;;;5061469;28;20251;-68
2022/11/03 08:09:15;;;;;;;9.37;5.60;;;12.70;99.90;;;;;;5081962;28;20228;-69
2022/11/03 08:11:42;;;;;;;10.03;5.43;;;12.80;99.90;;;;;;5083649;28;20205;-70
2022/11/03 08:14:09;;;;;;;10.37;5.30;;;12.80;99.90;;;;;;5080507;28;20237;-69
2022/11/03 08:16:37;;;;;;;11.27;5.53;;;12.90;99.90;;;;;;5083328;28;20259;-69
2022/11/03 08:19:04;;;;;;;9.03;5.03;;;13.10;99.90;;;;;;5080300;28;20210;-70
2022/11/03 08:21:31;;;;;;;9.27;5.50;;;13.30;99.90;;;;;;5089738;28;20641;-69
2022/11/03 08:23:57;;;;;;;11.80;4.93;;;13.50;99.90;;;;;;5092203;28;20228;-69
2022/11/03 08:26:24;;;;;;;9.40;4.77;;;13.80;99.90;;;;;;5082922;28;20223;-69
2022/11/03 08:28:52;;;;;;;8.50;4.50;;;14.00;99.90;;;;;;5074048;28;20543;-70
2022/11/03 08:31:19;;;;;;;9.60;4.70;;;14.20;99.90;;;;;;5084978;28;20234;-69
2022/11/03 08:33:47;;;;;;;9.53;4.80;;;14.30;99.90;;;;;;5079850;28;20914;-69
2022/11/03 08:36:13;;;;;;;8.57;5.00;;;14.50;99.90;;;;;;5081369;28;20215;-70
2022/11/03 08:38:40;;;;;;;9.63;4.90;;;14.70;99.90;;;;;;5078755;28;20571;-69
2022/11/03 08:41:07;;;;;;;12.00;5.23;;;15.10;99.90;;;;;;5090348;28;20219;-69
2022/11/03 08:43:34;;;;;;;9.17;5.53;;;16.40;99.90;;;;;;5092294;28;20214;-70
2022/11/03 08:46:01;;;;;;;7.07;4.75;;;18.80;99.90;;;;;;5090573;28;20661;-69
2022/11/03 08:48:28;;;;;;;8.93;4.38;;;21.80;97.70;;;;;;5091452;28;20229;-69
2022/11/03 08:50:56;;;;;;;8.82;4.57;;;24.40;83.50;;;;;;5092112;28;20693;-69
2022/11/03 08:53:26;;;;;;;8.27;4.32;;;26.50;70.30;;;;;;5086798;28;20200;-70
2022/11/03 08:55:53;;;;;;;7.15;4.03;;;28.30;59.00;;;;;;5092833;28;20205;-69
2022/11/03 08:58:20;;;;;;;8.88;4.43;;;29.60;54.00;;;;;;5092928;28;20200;-69
2022/11/03 09:00:46;;;;;;;12.43;4.32;;;31.00;50.80;;;;;;5092548;28;20212;-68
2022/11/03 09:03:13;;;;;;;7.13;4.35;;;32.30;47.20;;;;;;5091688;28;20567;-68
2022/11/03 09:05:40;;;;;;;10.75;4.25;;;33.30;45.30;;;;;;5091909;28;20208;-68
2022/11/03 09:08:11;;;;;;;8.88;4.80;;;34.40;42.70;;;;;;5089519;28;20318;-70
2022/11/03 09:10:38;;;;;;;6.40;4.22;;;35.40;40.10;;;;;;5089361;28;20689;-68
2022/11/03 09:13:05;;;;;;;7.97;4.32;;;36.10;38.60;;;;;;5091831;28;20575;-69
2022/11/03 09:15:32;;;;;;;9.48;3.70;;;36.90;37.30;;;;;;5090183;28;20265;-68
2022/11/03 09:17:59;;;;;;;6.97;3.47;;;37.60;35.60;;;;;;5088783;28;20240;-68
2022/11/03 09:20:25;;;;;;;11.73;4.60;;;37.80;34.70;;;;;;5091055;28;20208;-69
2022/11/03 09:22:53;;;;;;;8.10;3.78;;;37.90;33.60;;;;;;5084512;28;20232;-68
2022/11/03 09:25:21;;;;;;;7.75;3.80;;;38.00;34.10;;;;;;5092945;28;20208;-68
2022/11/03 09:27:47;;;;;;;6.72;3.92;;;38.40;33.90;;;;;;5092477;28;20212;-68
2022/11/03 09:30:16;;;;;;;10.98;4.40;;;39.10;33.20;;;;;;5091535;28;20215;-68
2022/11/03 09:32:45;;;;;;;7.40;4.03;;;39.90;32.40;;;;;;5084616;28;20661;-69
2022/11/03 09:35:15;;;;;;;6.85;3.65;;;40.60;31.00;;;;;;5088255;28;20552;-68
2022/11/03 09:37:43;;;;;;;5.50;3.15;;;40.90;30.80;;;;;;5095249;28;20207;-68
2022/11/03 09:40:14;;;;;;;9.55;3.20;;;41.10;29.90;;;;;;5090948;28;20223;-69
2022/11/03 09:42:43;;;;;;;7.15;3.50;;;41.30;29.90;;;;;;5090797;28;20200;-69
2022/11/03 09:45:10;;;;;;;7.75;3.00;;;41.80;29.90;;;;;;5090304;28;20220;-68
2022/11/03 09:47:40;;;;;;;6.35;3.10;;;42.30;29.50;;;;;;5089757;28;20719;-69
2022/11/03 09:50:13;;;;;;;7.07;3.40;;;42.80;29.20;;;;;;5089572;28;20204;-69
2022/11/03 09:52:41;;;;;;;7.78;2.90;;;43.30;28.60;;;;;;5081889;28;20249;-68
2022/11/03 09:55:14;;;;;;;6.70;2.97;;;43.60;28.40;;;;;;5088083;28;20678;-68
2022/11/03 09:57:45;;;;;;;5.25;2.72;;;43.80;28.00;;;;;;5090642;28;20265;-69
2022/11/03 10:00:19;;;;;;;9.27;3.30;;;44.30;27.80;;;;;;5092645;28;20259;-68
2022/11/03 10:02:47;;;;;;;4.32;2.45;;;44.70;27.40;;;;;;5088865;28;20310;-69
2022/11/03 10:05:16;;;;;;;6.22;3.13;;;44.60;27.00;;;;;;5094955;28;20196;-68
2022/11/03 10:07:44;;;;;;;8.10;2.83;;;43.80;27.30;;;;;;5091348;28;20267;-69
2022/11/03 10:10:16;;;;;;;7.60;2.70;;;43.30;27.50;;;;;;5094035;28;20218;-70
2022/11/03 10:12:46;;;;;;;3.97;2.38;;;43.50;27.50;;;;;;5094921;28;20287;-69
2022/11/03 10:15:15;;;;;;;5.60;2.58;;;44.30;27.10;;;;;;5093236;28;20792;-68
2022/11/03 10:17:43;;;;;;;6.55;3.17;;;45.20;26.60;;;;;;5090469;28;20196;-68
2022/11/03 10:20:11;;;;;;;7.57;3.00;;;45.80;26.00;;;;;;5092873;28;20211;-68
2022/11/03 10:22:39;;;;;;;5.22;2.65;;;46.20;25.90;;;;;;5092636;28;20239;-68
2022/11/03 10:25:45;;;;;;;6.43;2.80;;;46.80;25.70;;;;;;5095063;28;20207;-69
2022/11/03 10:28:19;;;;;;;13.05;3.28;;;47.20;25.20;;;;;;5076058;28;20252;-68
2022/11/03 10:30:53;;;;;;;5.95;2.63;;;47.60;24.90;;;;;;5092857;28;20264;-69
2022/11/03 10:33:28;;;;;;;6.63;3.08;;;47.70;24.60;;;;;;5093703;28;20199;-68
2022/11/03 10:35:55;;;;;;;5.45;2.78;;;47.60;24.40;;;;;;5095604;28;20268;-71
2022/11/03 10:38:27;;;;;;;6.45;2.78;;;47.80;24.60;;;;;;5093465;28;20215;-68
2022/11/03 10:40:54;;;;;;;5.82;2.90;;;48.20;24.20;;;;;;5087930;28;20200;-68
2022/11/03 10:43:22;;;;;;;5.53;2.95;;;48.60;24.10;;;;;;5093823;28;20737;-69
2022/11/03 10:45:54;;;;;;;5.13;2.67;;;48.80;23.70;;;;;;5091828;28;20211;-68
2022/11/03 10:48:21;;;;;;;5.60;2.78;;;48.40;23.50;;;;;;5092322;28;20494;-69
2022/11/03 10:50:47;;;;;;;7.35;3.95;;;48.20;23.80;;;;;;5094324;28;20204;-69
2022/11/03 10:53:17;;;;;;;4.82;2.88;;;48.40;23.70;;;;;;5095043;28;20204;-68
2022/11/03 10:55:44;;;;;;;6.07;3.05;;;48.50;23.40;;;;;;5092502;28;20285;-72
2022/11/03 10:58:11;;;;;;;7.57;3.30;;;47.70;23.80;;;;;;5092021;28;20204;-69
2022/11/03 11:00:42;;;;;;;5.32;2.72;;;47.10;23.90;;;;;;5085436;28;20691;-69
2022/11/03 11:03:11;;;;;;;6.13;2.40;;;47.00;23.70;;;;;;5091816;28;20634;-69
2022/11/03 11:05:44;;;;;;;6.35;2.28;;;47.30;23.60;;;;;;5092265;28;20673;-68
2022/11/03 11:08:13;;;;;;;3.58;2.08;;;47.80;23.30;;;;;;5085601;28;20236;-69
2022/11/03 11:10:43;;;;;;;5.93;2.25;;;48.30;23.30;;;;;;5094134;28;20633;-69
2022/11/03 11:13:28;;;;;;;7.50;2.20;;;48.20;22.40;;;;;;5086696;28;20287;-69
2022/11/03 11:15:58;;;;;;;4.53;2.47;;;47.30;22.80;;;;;;5093830;28;20653;-68
2022/11/03 11:19:11;;;;;;;5.50;2.00;;;46.20;23.20;;;;;;5095824;28;20204;-69
2022/11/03 11:21:59;;;;;;;5.13;2.10;;;46.20;23.60;;;;;;5084287;28;20646;-68
2022/11/03 11:24:58;;;;;;;5.03;2.33;;;46.30;23.40;;;;;;5088825;28;20633;-69
2022/11/03 11:28:06;;;;;;;5.32;2.40;;;46.00;23.20;;;;;;5082424;28;20211;-68
2022/11/03 11:30:59;;;;;;;7.20;2.50;;;45.40;23.20;;;;;;5070736;28;20230;-70
2022/11/03 11:33:30;;;;;;;8.10;2.95;;;45.20;23.60;;;;;;5086282;28;20200;-68
2022/11/03 11:36:20;;;;;;;6.97;2.90;;;45.60;23.50;;;;;;5092419;28;20220;-69
2022/11/03 11:39:09;;;;;;;7.72;4.32;;;46.10;23.30;;;;;;5094835;28;20624;-70
2022/11/03 11:42:11;;;;;;;6.90;3.65;;;46.60;23.30;;;;;;5094052;28;20212;-71
2022/11/03 11:44:57;;;;;;;6.15;2.88;;;46.10;22.60;;;;;;5093211;28;20223;-69
2022/11/03 11:47:32;;;;;;;6.03;1.88;;;43.10;23.50;;;;;;5090925;28;20257;-68
2022/11/03 11:50:36;;;;;;;6.30;2.10;;;39.90;24.90;;;;;;5093340;28;20208;-69
2022/11/03 11:53:21;;;;;;;5.95;1.83;;;37.00;26.30;;;;;;5092690;28;20671;-69
2022/11/03 11:55:54;;;;;;;3.88;1.80;;;34.00;28.10;;;;;;5093307;28;20216;-69
2022/11/03 11:58:29;;;;;;;6.10;1.98;;;31.90;29.60;;;;;;5090055;28;20201;-69
2022/11/03 12:01:01;;;;;;;6.32;2.40;;;30.20;31.60;;;;;;5092034;28;20204;-70
2022/11/03 12:03:38;;;;;;;4.82;2.03;;;28.80;33.30;;;;;;5090560;28;20200;-70
2022/11/03 12:06:08;;;;;;;5.32;1.80;;;27.70;34.80;;;;;;5087207;28;20192;-69
2022/11/03 12:08:35;;;;;;;4.50;2.00;;;26.60;36.30;;;;;;5088396;28;20236;-69
2022/11/03 12:11:03;;;;;;;6.32;2.25;;;25.60;37.60;;;;;;5090030;28;20216;-70
2022/11/03 12:13:46;;;;;;;6.03;2.00;;;24.70;39.30;;;;;;5089873;28;20215;-68
2022/11/03 12:16:29;;;;;;;5.55;1.92;;;23.90;40.70;;;;;;5084269;28;20208;-69
2022/11/03 12:18:56;;;;;;;6.57;2.40;;;23.20;41.80;;;;;;5086900;28;20223;-69
2022/11/03 12:21:47;;;;;;;5.68;2.03;;;22.70;42.70;;;;;;5091863;28;20205;-70
2022/11/03 12:24:27;;;;;;;6.90;2.80;;;22.00;43.90;;;;;;5090150;28;20220;-69
2022/11/03 12:26:54;;;;;;;5.28;1.90;;;21.50;44.90;;;;;;5081977;28;20208;-68
2022/11/03 12:29:21;;;;;;;5.88;2.00;;;21.10;45.10;;;;;;5091075;28;20515;-69
2022/11/03 12:31:47;;;;;;;4.90;1.90;;;20.80;45.70;;;;;;5090122;28;20231;-69
2022/11/03 12:34:15;;;;;;;4.57;1.80;;;20.60;46.30;;;;;;5091906;28;20563;-69
2022/11/03 12:36:42;;;;;;;4.35;1.80;;;20.30;46.80;;;;;;5090352;28;20209;-70
2022/11/03 12:39:10;;;;;;;5.05;1.80;;;20.00;47.60;;;;;;5090762;28;20212;-70
2022/11/03 12:41:37;;;;;;;5.90;1.48;;;19.80;48.00;;;;;;5088083;28;20209;-69
2022/11/03 12:44:04;;;;;;;7.90;1.77;;;19.50;48.30;;;;;;5089034;28;20216;-70
2022/11/03 12:46:31;;;;;;;5.53;2.03;;;19.20;48.90;;;;;;5085872;28;20196;-69
2022/11/03 12:48:58;;;;;;;5.97;1.95;;;19.00;49.50;;;;;;5087200;28;20208;-69
2022/11/03 12:51:25;;;;;;;3.92;2.00;;;18.70;49.80;;;;;;5086834;28;20213;-70
2022/11/03 12:53:52;;;;;;;9.07;2.47;;;18.50;50.30;;;;;;5089175;28;20300;-70
2022/11/03 12:56:20;;;;;;;5.63;2.00;;;18.30;50.60;;;;;;5089773;28;20236;-70
2022/11/03 12:58:46;;;;;;;5.85;1.90;;;18.20;51.10;;;;;;5086882;28;20205;-70
2022/11/03 13:01:13;;;;;;;5.90;2.13;;;18.10;51.00;;;;;;5086103;28;20212;-71
2022/11/03 13:03:41;;;;;;;6.53;3.80;;;18.00;51.10;;;;;;5089444;28;20236;-71
2022/11/03 13:06:09;;;;;;;6.70;2.20;;;17.60;51.40;;;;;;5080272;28;20322;-70
2022/11/03 13:08:36;;;;;;;6.88;2.10;;;17.60;52.00;;;;;;5083693;28;20255;-69
2022/11/03 13:11:02;;;;;;;6.50;2.47;;;17.40;52.60;;;;;;5089296;28;20604;-69
2022/11/03 13:13:31;;;;;;;7.90;2.58;;;17.10;53.30;;;;;;5087262;28;20657;-69
2022/11/03 13:15:58;;;;;;;3.40;1.98;;;17.00;53.70;;;;;;5086387;28;20257;-70
2022/11/03 13:18:25;;;;;;;8.20;2.25;;;16.80;54.00;;;;;;5084477;28;20219;-71
2022/11/03 13:20:51;;;;;;;11.57;3.38;;;16.70;54.50;;;;;;5085803;28;20209;-69